Etusivu
METAR-TAF:

METAR-TAF

Lentoasemat :

Madeiran lentoasema

Funchal, Madeira, Portugali

Leveyspiiri: 32-41-52N, Pituuspiiri: 016-46-28W, korkeus merenpinnasta: 59 m

Tämänhetkinen sää

Tämä raportti tehtiin 25 minuuttia sitten, kello 04.30 UTC
Tuuli 6 kn luoteesta
Lämpötila 14°C
Kosteus 72%
Ilmanpaine 1024 hPa
Näkyvyys 10 km tai enemmän
Hajanaisia pilviä 1600 ft:n korkeudessa

METAR: LPMA 260430Z 32006KT 9999 SCT016 14/09 Q1024

Aika: 04:55 (04:55 UTC)

Sääennuste

Tämä raportti tehtiin 5 tuntia ja 55 minuuttia sitten, kello 23.00 UTC
Ennuste voimassa 26. päivästä klo 00 UTC - 26. päivään klo 24 UTC
Tuuli 5 kn eri suunnista
Näkyvyys 10 km tai enemmän
Hajanaisia pilviä 1600 ft:n korkeudessa
Ajoittain
26. päivästä klo 12 UTC - 26. päivään klo 21 UTC
Tuuli 7 kn etelästä

TAF: LPMA 252300Z 2600/2624 VRB05KT 9999 SCT016 TEMPO 2612/2621 18007KT

Säähavainnot ja -ennusteet yli 4000 lentoasemalta (METAR- ja TAF-raportit).

Käytössä olevat sääasemat on merkitty karttaan keltaisilla ja punaisilla pisteillä.

Aseta hiiri pisteen päälle nähdäksesi sääaseman nimen.

Klikkaa sitten nähdäksesi säähavainnot ja -ennusteet.

Kartan vaihtaminen: klikkaa mustalla rastilla varustettuja vihreitä pisteitä, niin voit zoomata sisään; viivalla varustettua vihreää pistettä, niin voit zoomata ulos tai vihreitä nuolia, niin pääset viereisille kartoille.


METAR-TAF: